Time;durP1;ratioP1;P1;durP2;ratioP2;P2;SDS_P1;SDS_P2;PMS_P1;PMS_P2;Temp;Humidity;BMP_temperature;BMP_pressure;BME280_temperature;BME280_humidity;BME280_pressure;Samples;Min_cycle;Max_cycle;Signal;HPM_P1;HPM_P2
2022/07/18 00:02:01;;;;;;;5.10;1.55;;;17.60;69.90;;;;;;5013068;28;20030;-67
2022/07/18 00:04:27;;;;;;;2.53;1.13;;;17.50;70.40;;;;;;5012110;28;20057;-67
2022/07/18 00:06:54;;;;;;;2.03;1.33;;;17.40;70.70;;;;;;5016468;28;20037;-67
2022/07/18 00:09:22;;;;;;;4.25;1.20;;;17.30;70.60;;;;;;5021993;28;20594;-67
2022/07/18 00:11:48;;;;;;;1.60;1.10;;;17.30;70.90;;;;;;5021610;28;20026;-68
2022/07/18 00:14:14;;;;;;;3.38;1.40;;;17.30;71.60;;;;;;5018468;28;20552;-67
2022/07/18 00:16:40;;;;;;;1.85;1.42;;;17.30;72.00;;;;;;5019160;28;20036;-67
2022/07/18 00:19:06;;;;;;;1.67;1.50;;;17.20;72.10;;;;;;5016702;28;20038;-67
2022/07/18 00:21:32;;;;;;;1.55;1.40;;;17.20;72.30;;;;;;5016702;28;20037;-67
2022/07/18 00:23:58;;;;;;;1.90;1.23;;;17.20;72.40;;;;;;5014350;28;20064;-67
2022/07/18 00:26:24;;;;;;;3.60;1.60;;;17.10;72.80;;;;;;5023156;28;20838;-67
2022/07/18 00:28:50;;;;;;;2.85;1.42;;;17.10;73.40;;;;;;5021600;28;20033;-67
2022/07/18 00:31:15;;;;;;;1.95;1.15;;;17.20;73.90;;;;;;5019998;28;20032;-67
2022/07/18 00:33:41;;;;;;;2.40;1.40;;;17.20;74.60;;;;;;5020097;28;20033;-68
2022/07/18 00:36:07;;;;;;;2.47;1.60;;;17.20;75.30;;;;;;5017254;28;20037;-67
2022/07/18 00:38:33;;;;;;;1.95;1.40;;;17.20;75.80;;;;;;5017370;28;20095;-67
2022/07/18 00:40:59;;;;;;;2.47;1.65;;;17.20;75.70;;;;;;5014995;28;20116;-67
2022/07/18 00:43:25;;;;;;;1.48;1.30;;;17.20;74.70;;;;;;5014595;28;20561;-67
2022/07/18 00:45:52;;;;;;;2.08;1.45;;;17.30;74.40;;;;;;5023759;28;20040;-67
2022/07/18 00:48:18;;;;;;;1.90;1.58;;;17.20;75.20;;;;;;5021810;28;20025;-68
2022/07/18 00:50:45;;;;;;;1.40;1.17;;;17.20;75.20;;;;;;5022589;28;20033;-67
2022/07/18 00:53:11;;;;;;;1.77;1.35;;;17.10;75.50;;;;;;5018002;28;20065;-67
2022/07/18 00:55:41;;;;;;;1.80;1.30;;;17.10;75.20;;;;;;5019717;28;20029;-67
2022/07/18 00:58:11;;;;;;;3.42;1.52;;;17.10;75.70;;;;;;5020935;28;20733;-67
2022/07/18 01:03:22;;;;;;;1.77;1.50;;;17.00;74.20;;;;;;5021825;28;20038;-67
2022/07/18 01:05:47;;;;;;;2.80;1.23;;;17.00;73.80;;;;;;5022539;28;20049;-67
2022/07/18 01:08:13;;;;;;;3.10;1.02;;;17.00;73.30;;;;;;5019065;28;20503;-67
2022/07/18 01:10:39;;;;;;;1.95;0.93;;;16.90;73.10;;;;;;5022276;28;20164;-67
2022/07/18 01:13:05;;;;;;;3.85;1.38;;;16.90;73.00;;;;;;5019618;28;20079;-67
2022/07/18 01:15:31;;;;;;;3.25;1.30;;;16.90;73.50;;;;;;5018108;28;20198;-68
2022/07/18 01:17:56;;;;;;;1.63;1.20;;;16.80;72.70;;;;;;5014815;28;20025;-67
2022/07/18 01:20:27;;;;;;;2.67;1.38;;;16.80;73.00;;;;;;5014205;28;20116;-67
2022/07/18 01:22:53;;;;;;;1.83;1.40;;;16.80;73.20;;;;;;5023457;28;20091;-67
2022/07/18 01:25:18;;;;;;;2.40;1.17;;;16.70;73.40;;;;;;5024180;28;20033;-67
2022/07/18 01:27:45;;;;;;;1.92;1.52;;;16.70;73.70;;;;;;5021028;28;20038;-67
2022/07/18 01:30:10;;;;;;;3.95;1.48;;;16.70;73.80;;;;;;5018103;28;20052;-67
2022/07/18 01:32:36;;;;;;;1.95;1.30;;;16.70;73.80;;;;;;5020394;28;20022;-67
2022/07/18 01:35:03;;;;;;;3.30;1.50;;;16.70;74.00;;;;;;5015587;28;20030;-67
2022/07/18 01:37:29;;;;;;;2.78;1.48;;;16.70;74.20;;;;;;5018528;28;20038;-67
2022/07/18 01:39:55;;;;;;;2.75;1.42;;;16.60;74.50;;;;;;5019399;28;20055;-67
2022/07/18 01:42:20;;;;;;;3.15;1.50;;;16.60;74.80;;;;;;5021909;28;20043;-67
2022/07/18 01:44:47;;;;;;;1.73;1.45;;;16.60;74.90;;;;;;5021089;28;20493;-67
2022/07/18 01:47:13;;;;;;;5.10;1.48;;;16.60;74.90;;;;;;5017963;28;20124;-67
2022/07/18 01:49:40;;;;;;;3.42;1.50;;;16.60;74.90;;;;;;5019101;28;20124;-67
2022/07/18 01:52:06;;;;;;;2.35;1.45;;;16.60;74.90;;;;;;5017746;28;20614;-67
2022/07/18 01:54:33;;;;;;;5.63;1.60;;;16.50;74.90;;;;;;5018325;28;20021;-67
2022/07/18 01:57:01;;;;;;;2.08;1.20;;;16.50;74.90;;;;;;5016683;28;20037;-66
2022/07/18 01:59:27;;;;;;;1.60;1.30;;;16.50;74.40;;;;;;5017816;28;20116;-67
2022/07/18 02:01:53;;;;;;;2.60;1.30;;;16.50;74.40;;;;;;5021263;28;20044;-67
2022/07/18 02:04:19;;;;;;;1.55;1.35;;;16.40;74.60;;;;;;5017253;28;20025;-66
2022/07/18 02:06:45;;;;;;;2.53;1.30;;;16.40;74.30;;;;;;5020122;28;20025;-67
2022/07/18 02:09:11;;;;;;;4.72;1.73;;;16.30;74.50;;;;;;5015782;28;20401;-67
2022/07/18 02:11:37;;;;;;;2.25;1.13;;;16.30;74.70;;;;;;5013997;28;20021;-66
2022/07/18 02:14:05;;;;;;;3.70;1.40;;;16.20;75.10;;;;;;5012338;28;20106;-66
2022/07/18 02:16:31;;;;;;;1.35;1.17;;;16.10;74.90;;;;;;5012628;28;20030;-67
2022/07/18 02:18:57;;;;;;;1.48;1.33;;;16.10;75.00;;;;;;5017566;28;20032;-67
2022/07/18 02:21:22;;;;;;;3.55;1.60;;;16.00;75.30;;;;;;5020752;28;20044;-66
2022/07/18 02:23:50;;;;;;;3.15;1.40;;;16.00;75.90;;;;;;5019462;28;20629;-67
2022/07/18 02:26:17;;;;;;;3.95;1.65;;;15.90;76.60;;;;;;5019881;28;20045;-67
2022/07/18 02:28:43;;;;;;;2.30;1.60;;;15.80;77.50;;;;;;5017062;28;20095;-68
2022/07/18 02:31:09;;;;;;;2.08;1.40;;;15.80;77.50;;;;;;5015788;28;20509;-67
2022/07/18 02:33:35;;;;;;;3.60;1.65;;;15.80;77.80;;;;;;5014838;28;20029;-67
2022/07/18 02:36:00;;;;;;;3.28;1.67;;;15.80;77.90;;;;;;5012404;28;20913;-66
2022/07/18 02:38:26;;;;;;;4.13;1.60;;;15.80;77.90;;;;;;5019722;28;20040;-67
2022/07/18 02:40:52;;;;;;;4.70;1.50;;;15.80;78.00;;;;;;5020921;28;20029;-66
2022/07/18 02:43:18;;;;;;;2.33;1.30;;;15.80;77.70;;;;;;5018172;28;20033;-68
2022/07/18 02:45:44;;;;;;;3.92;1.52;;;15.90;77.00;;;;;;5018174;28;20037;-67
2022/07/18 02:48:09;;;;;;;1.67;1.55;;;15.80;77.10;;;;;;5015820;28;20033;-67
2022/07/18 02:50:35;;;;;;;1.70;1.60;;;15.80;77.40;;;;;;5015712;28;20049;-67
2022/07/18 02:53:01;;;;;;;1.80;1.40;;;15.80;77.70;;;;;;5018609;28;20112;-66
2022/07/18 02:55:27;;;;;;;3.35;1.52;;;15.70;78.00;;;;;;5015218;28;20068;-66
2022/07/18 02:57:52;;;;;;;1.70;1.60;;;15.70;78.10;;;;;;5020984;28;20027;-66
2022/07/18 03:00:18;;;;;;;3.15;1.60;;;15.70;77.70;;;;;;5019848;28;20087;-67
2022/07/18 03:02:44;;;;;;;2.10;1.50;;;15.60;78.10;;;;;;5018638;28;20179;-66
2022/07/18 03:05:12;;;;;;;2.40;1.48;;;15.70;78.60;;;;;;5016518;28;20128;-67
2022/07/18 03:07:38;;;;;;;4.28;1.65;;;15.60;78.90;;;;;;5016042;28;20122;-67
2022/07/18 03:10:05;;;;;;;1.48;1.38;;;15.60;79.20;;;;;;5013137;28;20278;-66
2022/07/18 03:12:32;;;;;;;3.30;1.60;;;15.60;79.10;;;;;;5013257;28;20057;-66
2022/07/18 03:14:58;;;;;;;1.73;1.30;;;15.60;78.80;;;;;;5017488;28;20943;-66
2022/07/18 03:17:24;;;;;;;1.55;1.30;;;15.50;78.50;;;;;;5018564;28;20098;-67
2022/07/18 03:19:49;;;;;;;2.55;1.70;;;15.50;78.60;;;;;;5019318;28;20026;-66
2022/07/18 03:22:15;;;;;;;1.85;1.35;;;15.50;78.90;;;;;;5017442;28;20669;-66
2022/07/18 03:24:41;;;;;;;4.65;1.45;;;15.40;78.90;;;;;;5018483;28;20048;-67
2022/07/18 03:27:07;;;;;;;2.60;1.60;;;15.40;78.80;;;;;;5013385;28;20044;-66
2022/07/18 03:29:33;;;;;;;3.15;1.50;;;15.40;78.70;;;;;;5013599;28;20032;-67
2022/07/18 03:31:58;;;;;;;2.78;1.60;;;15.30;78.70;;;;;;5011430;28;20623;-66
2022/07/18 03:34:24;;;;;;;3.72;1.77;;;15.30;79.00;;;;;;5018299;28;20033;-67
2022/07/18 03:36:50;;;;;;;3.38;1.80;;;15.30;79.30;;;;;;5019185;28;20093;-67
2022/07/18 03:39:16;;;;;;;4.15;1.60;;;15.20;79.90;;;;;;5016565;28;20957;-66
2022/07/18 03:41:41;;;;;;;1.77;1.50;;;15.10;80.80;;;;;;5018499;28;20033;-66
2022/07/18 03:44:08;;;;;;;2.92;2.10;;;15.10;81.20;;;;;;5017247;28;20171;-67
2022/07/18 03:46:33;;;;;;;2.72;1.60;;;15.20;81.40;;;;;;5018007;28;20063;-66
2022/07/18 03:48:59;;;;;;;1.83;1.60;;;15.20;81.40;;;;;;5018906;28;20489;-67
2022/07/18 03:51:25;;;;;;;1.88;1.63;;;15.30;81.70;;;;;;5015774;28;20662;-67
2022/07/18 03:53:51;;;;;;;2.42;1.48;;;15.30;80.50;;;;;;5024834;28;20030;-67
2022/07/18 03:56:17;;;;;;;3.97;1.70;;;15.30;79.50;;;;;;5023122;28;20128;-66
2022/07/18 03:58:43;;;;;;;2.42;1.48;;;15.30;79.50;;;;;;5022436;28;20124;-67
2022/07/18 04:01:09;;;;;;;3.78;1.70;;;15.30;79.60;;;;;;5021496;28;20146;-67
2022/07/18 04:03:35;;;;;;;4.55;1.60;;;15.30;80.10;;;;;;5022466;28;20440;-66
2022/07/18 04:06:01;;;;;;;5.32;1.67;;;15.30;79.50;;;;;;5017896;28;20064;-67
2022/07/18 04:08:27;;;;;;;7.03;1.92;;;15.40;78.80;;;;;;5018353;28;20053;-67
2022/07/18 04:10:53;;;;;;;5.68;1.65;;;15.40;78.30;;;;;;5019794;28;20025;-67
2022/07/18 04:13:19;;;;;;;2.30;1.80;;;15.30;78.60;;;;;;5025568;28;20894;-67
2022/07/18 04:15:44;;;;;;;5.30;1.80;;;15.30;79.30;;;;;;5023703;28;20083;-67
2022/07/18 04:18:10;;;;;;;2.67;1.77;;;15.30;79.90;;;;;;5020044;28;20040;-68
2022/07/18 04:20:38;;;;;;;4.25;1.70;;;15.30;80.10;;;;;;5020787;28;20805;-67
2022/07/18 04:23:07;;;;;;;3.88;1.85;;;15.20;80.10;;;;;;5019677;28;20103;-67
2022/07/18 04:25:35;;;;;;;2.53;1.65;;;15.20;80.20;;;;;;5021440;28;20037;-67
2022/07/18 04:28:03;;;;;;;2.75;1.52;;;15.20;80.60;;;;;;5014257;28;20043;-67
2022/07/18 04:30:29;;;;;;;2.47;1.60;;;15.20;80.80;;;;;;5019199;28;20593;-67
2022/07/18 04:32:56;;;;;;;5.10;1.88;;;15.20;81.80;;;;;;5023189;28;20075;-66
2022/07/18 04:35:22;;;;;;;1.60;1.50;;;15.20;81.60;;;;;;5020909;28;20087;-67
2022/07/18 04:37:49;;;;;;;4.22;2.17;;;15.20;81.70;;;;;;5020133;28;20021;-67
2022/07/18 04:40:15;;;;;;;2.38;1.70;;;15.20;81.90;;;;;;5015395;28;20100;-67
2022/07/18 04:42:41;;;;;;;1.80;1.70;;;15.30;82.20;;;;;;5023895;28;20132;-67
2022/07/18 04:45:08;;;;;;;2.85;2.15;;;15.30;82.50;;;;;;5014063;28;20109;-67
2022/07/18 04:47:34;;;;;;;4.35;2.55;;;15.40;83.00;;;;;;5015711;28;20025;-66
2022/07/18 04:50:00;;;;;;;5.85;2.40;;;15.40;83.40;;;;;;5019880;28;20501;-67
2022/07/18 04:52:25;;;;;;;2.25;1.83;;;15.50;83.80;;;;;;5021399;28;20030;-67
2022/07/18 04:54:51;;;;;;;4.18;2.10;;;15.50;84.20;;;;;;5022305;28;20026;-67
2022/07/18 04:57:17;;;;;;;4.07;1.73;;;15.60;84.50;;;;;;5019990;28;20465;-66
2022/07/18 04:59:44;;;;;;;1.92;1.73;;;15.70;84.70;;;;;;5021278;28;20056;-67
2022/07/18 05:02:10;;;;;;;2.80;1.83;;;15.70;84.70;;;;;;5015566;28;20034;-67
2022/07/18 05:04:38;;;;;;;4.22;2.30;;;15.70;84.50;;;;;;5016160;28;20041;-66
2022/07/18 05:07:05;;;;;;;3.70;2.22;;;15.80;84.50;;;;;;5016435;28;20044;-67
2022/07/18 05:09:30;;;;;;;2.95;2.10;;;15.90;84.20;;;;;;5023094;28;20502;-67
2022/07/18 05:11:56;;;;;;;6.05;2.83;;;16.00;84.10;;;;;;5022040;28;20126;-67
2022/07/18 05:14:22;;;;;;;4.82;2.28;;;16.00;83.60;;;;;;5020922;28;20490;-67
2022/07/18 05:16:49;;;;;;;5.07;2.58;;;16.10;83.30;;;;;;5021349;28;20167;-67
2022/07/18 05:19:15;;;;;;;3.42;2.17;;;16.20;83.10;;;;;;5016529;28;20034;-67
2022/07/18 05:21:43;;;;;;;2.92;2.45;;;16.30;83.00;;;;;;5017794;28;20044;-66
2022/07/18 05:24:09;;;;;;;3.00;1.90;;;16.30;83.00;;;;;;5014834;28;20715;-67
2022/07/18 05:26:34;;;;;;;3.05;1.98;;;16.40;83.00;;;;;;5019427;28;20132;-66
2022/07/18 05:29:00;;;;;;;3.50;1.88;;;16.50;83.20;;;;;;5022559;28;20494;-67
2022/07/18 05:31:26;;;;;;;2.00;1.77;;;16.60;83.40;;;;;;5020677;28;20026;-66
2022/07/18 05:33:52;;;;;;;2.42;1.90;;;16.70;83.60;;;;;;5022188;28;20563;-67
2022/07/18 05:36:18;;;;;;;3.72;2.03;;;16.70;83.50;;;;;;5017391;28;20084;-67
2022/07/18 05:38:44;;;;;;;2.75;1.80;;;16.80;83.40;;;;;;5017639;28;20034;-67
2022/07/18 05:41:09;;;;;;;3.13;1.92;;;17.00;83.40;;;;;;5014984;28;20030;-66
2022/07/18 05:43:35;;;;;;;2.30;1.73;;;17.00;83.60;;;;;;5015638;28;20484;-66
2022/07/18 05:46:01;;;;;;;2.35;1.90;;;17.10;83.00;;;;;;5018813;28;20033;-67
2022/07/18 05:48:27;;;;;;;2.72;1.83;;;17.20;82.80;;;;;;5020343;28;20025;-67
2022/07/18 05:50:52;;;;;;;3.28;1.80;;;17.30;82.40;;;;;;5020504;28;20021;-67
2022/07/18 05:53:18;;;;;;;2.85;1.77;;;17.40;82.10;;;;;;5019122;28;20037;-67
2022/07/18 05:55:44;;;;;;;7.95;3.33;;;17.50;81.50;;;;;;5019455;28;20032;-66
2022/07/18 05:58:10;;;;;;;2.13;1.67;;;17.60;81.00;;;;;;5013609;28;20565;-67
2022/07/18 06:00:35;;;;;;;2.00;1.80;;;17.70;80.90;;;;;;5015629;28;20447;-66
2022/07/18 06:03:01;;;;;;;2.47;1.77;;;17.80;80.40;;;;;;5014464;28;20040;-67
2022/07/18 06:05:27;;;;;;;3.78;1.80;;;17.90;79.60;;;;;;5020280;28;20037;-67
2022/07/18 06:07:55;;;;;;;2.38;1.50;;;18.10;79.30;;;;;;5020414;28;20030;-67
2022/07/18 06:10:21;;;;;;;4.00;1.92;;;18.20;78.60;;;;;;5019325;28;20410;-67
2022/07/18 06:12:47;;;;;;;4.85;2.08;;;18.30;77.40;;;;;;5018440;28;20039;-67
2022/07/18 06:15:14;;;;;;;3.85;1.90;;;18.40;76.70;;;;;;5015200;28;20029;-67
2022/07/18 06:17:39;;;;;;;2.97;1.77;;;18.60;76.00;;;;;;5016222;28;20101;-66
2022/07/18 06:20:07;;;;;;;6.28;2.20;;;18.70;76.30;;;;;;5012816;28;20116;-67
2022/07/18 06:22:34;;;;;;;3.05;1.52;;;18.90;74.90;;;;;;5015188;28;20905;-67
2022/07/18 06:25:01;;;;;;;3.88;1.88;;;19.00;74.60;;;;;;5024121;28;20587;-67
2022/07/18 06:27:26;;;;;;;3.42;1.55;;;19.10;74.10;;;;;;5021127;28;20041;-67
2022/07/18 06:29:52;;;;;;;3.80;1.77;;;19.20;73.90;;;;;;5021272;28;20366;-67
2022/07/18 06:32:18;;;;;;;3.13;2.05;;;19.30;74.20;;;;;;5016740;28;20026;-66
2022/07/18 06:34:44;;;;;;;3.15;1.75;;;19.40;74.40;;;;;;5017560;28;20029;-67
2022/07/18 06:37:10;;;;;;;4.68;1.63;;;19.50;74.30;;;;;;5013240;28;20269;-67
2022/07/18 06:39:36;;;;;;;5.18;1.73;;;19.70;74.60;;;;;;5015122;28;20615;-67
2022/07/18 06:42:02;;;;;;;3.92;1.80;;;19.80;74.20;;;;;;5014380;28;20045;-66
2022/07/18 06:44:28;;;;;;;5.03;1.85;;;19.80;72.80;;;;;;5020600;28;20478;-67
2022/07/18 06:46:54;;;;;;;5.82;1.60;;;20.00;70.40;;;;;;5019851;28;20037;-67
2022/07/18 06:49:20;;;;;;;2.72;1.52;;;20.10;68.40;;;;;;5017119;28;20037;-66
2022/07/18 06:51:45;;;;;;;3.47;1.67;;;20.20;67.50;;;;;;5018457;28;20025;-67
2022/07/18 06:54:11;;;;;;;7.18;1.65;;;20.20;65.90;;;;;;5016797;28;20580;-67
2022/07/18 06:56:37;;;;;;;5.68;1.50;;;20.30;66.10;;;;;;5016888;28;20159;-67
2022/07/18 06:59:03;;;;;;;3.55;1.88;;;20.40;65.60;;;;;;5011933;28;20041;-67
2022/07/18 07:01:29;;;;;;;3.58;1.50;;;20.50;65.50;;;;;;5016559;28;20486;-66
2022/07/18 07:03:54;;;;;;;3.88;1.60;;;20.50;65.30;;;;;;5020576;28;20025;-67
2022/07/18 07:06:20;;;;;;;4.72;1.83;;;20.60;65.30;;;;;;5018134;28;20060;-66
2022/07/18 07:08:46;;;;;;;7.03;1.90;;;20.70;64.80;;;;;;5017851;28;20037;-67
2022/07/18 07:11:12;;;;;;;5.60;1.90;;;20.80;64.10;;;;;;5015050;28;20033;-67
2022/07/18 07:13:38;;;;;;;5.13;1.40;;;20.90;63.80;;;;;;5016266;28;20683;-66
2022/07/18 07:16:04;;;;;;;3.55;1.77;;;20.90;63.70;;;;;;5016213;28;20041;-66
2022/07/18 07:18:31;;;;;;;4.07;1.40;;;21.00;64.00;;;;;;5013730;28;20056;-67
2022/07/18 07:20:57;;;;;;;5.57;1.65;;;21.10;63.90;;;;;;5017019;28;20488;-67
2022/07/18 07:23:23;;;;;;;4.43;1.52;;;21.20;63.00;;;;;;5019235;28;20041;-66
2022/07/18 07:25:49;;;;;;;6.55;1.38;;;21.30;62.60;;;;;;5019577;28;20056;-67
2022/07/18 07:28:14;;;;;;;2.78;1.30;;;21.40;62.60;;;;;;5015076;28;20056;-66
2022/07/18 07:30:41;;;;;;;3.28;1.10;;;21.50;61.30;;;;;;5019861;28;20041;-65
2022/07/18 07:33:08;;;;;;;4.40;1.33;;;21.70;58.50;;;;;;5013015;28;20065;-67
2022/07/18 07:35:34;;;;;;;2.90;1.20;;;21.70;58.80;;;;;;5013832;28;20604;-67
2022/07/18 07:38:00;;;;;;;2.97;1.10;;;21.80;58.90;;;;;;5012875;28;20069;-67
2022/07/18 07:40:28;;;;;;;3.28;1.42;;;21.90;58.90;;;;;;5019841;28;20076;-67
2022/07/18 07:43:09;;;;;;;3.28;1.52;;;22.00;59.50;;;;;;5018872;28;20034;-67
2022/07/18 07:45:35;;;;;;;6.68;1.38;;;22.10;58.30;;;;;;5018086;28;20096;-67
2022/07/18 07:48:01;;;;;;;7.80;1.73;;;22.20;58.00;;;;;;5015605;28;20048;-67
2022/07/18 07:50:27;;;;;;;1.60;1.02;;;22.30;57.30;;;;;;5014242;28;20044;-67
2022/07/18 07:52:53;;;;;;;4.95;1.55;;;22.40;57.30;;;;;;5016936;28;20025;-67
2022/07/18 07:55:19;;;;;;;4.18;1.30;;;22.60;57.10;;;;;;5012108;28;20072;-67
2022/07/18 07:57:44;;;;;;;2.35;1.35;;;22.60;56.30;;;;;;5015805;28;20143;-67
2022/07/18 08:00:10;;;;;;;4.15;1.15;;;22.80;55.40;;;;;;5018323;28;20505;-67
2022/07/18 08:03:01;;;;;;;9.55;1.38;;;22.80;54.50;;;;;;5015853;28;20044;-67
2022/07/18 08:05:30;;;;;;;2.60;0.98;;;23.00;54.30;;;;;;5015729;28;20618;-67
2022/07/18 08:07:58;;;;;;;3.38;1.23;;;23.10;54.10;;;;;;5014677;28;20041;-67
2022/07/18 08:10:24;;;;;;;2.95;1.27;;;23.10;54.10;;;;;;5012872;28;20061;-67
2022/07/18 08:12:50;;;;;;;3.65;1.33;;;23.30;54.20;;;;;;5017495;28;20029;-67
2022/07/18 08:15:16;;;;;;;3.45;1.42;;;23.50;52.90;;;;;;5010556;28;20030;-67
2022/07/18 08:17:42;;;;;;;7.43;1.27;;;23.70;52.90;;;;;;5020287;28;20480;-67
2022/07/18 08:20:09;;;;;;;3.97;1.20;;;23.80;52.40;;;;;;5019331;28;20156;-67
2022/07/18 08:22:35;;;;;;;5.43;1.35;;;23.90;51.40;;;;;;5021495;28;20108;-67
2022/07/18 08:25:02;;;;;;;3.70;1.45;;;24.00;51.00;;;;;;5018708;28;20153;-67
2022/07/18 08:27:28;;;;;;;3.55;1.02;;;24.00;50.50;;;;;;5014651;28;20919;-67
2022/07/18 08:29:54;;;;;;;4.95;1.10;;;24.00;50.10;;;;;;5018038;28;20038;-67
2022/07/18 08:32:19;;;;;;;4.97;1.35;;;24.00;50.20;;;;;;5015071;28;20036;-67
2022/07/18 08:34:45;;;;;;;3.60;1.20;;;24.00;50.90;;;;;;5016941;28;20037;-67
2022/07/18 08:37:11;;;;;;;5.55;1.30;;;24.10;50.20;;;;;;5023952;28;20032;-67
2022/07/18 08:39:37;;;;;;;3.50;1.33;;;24.10;49.40;;;;;;5018323;28;20390;-67
2022/07/18 08:42:04;;;;;;;5.07;1.42;;;24.30;49.60;;;;;;5022941;28;20033;-67
2022/07/18 08:44:33;;;;;;;3.90;1.38;;;24.40;48.50;;;;;;5021438;28;20038;-67
2022/07/18 08:47:00;;;;;;;2.88;1.40;;;24.40;48.50;;;;;;5016487;28;20069;-67
2022/07/18 08:49:26;;;;;;;4.90;1.80;;;24.40;49.40;;;;;;5016315;28;20029;-67
2022/07/18 08:51:53;;;;;;;3.95;1.45;;;24.50;48.70;;;;;;5016054;28;20124;-67
2022/07/18 08:54:19;;;;;;;6.20;1.65;;;24.70;47.50;;;;;;5017318;28;20659;-67
2022/07/18 08:56:44;;;;;;;5.32;1.92;;;24.80;47.50;;;;;;5022475;28;20072;-67
2022/07/18 08:59:10;;;;;;;3.88;1.70;;;24.90;47.00;;;;;;5020521;28;20073;-67
2022/07/18 09:01:36;;;;;;;2.72;1.73;;;25.00;46.30;;;;;;5020607;28;20099;-67
2022/07/18 09:04:18;;;;;;;5.60;2.13;;;25.10;45.60;;;;;;5017928;28;20033;-67
2022/07/18 09:06:49;;;;;;;6.88;2.60;;;25.10;45.50;;;;;;5015400;28;20128;-68
2022/07/18 09:09:17;;;;;;;3.83;2.25;;;25.10;45.60;;;;;;5013370;28;20048;-66
2022/07/18 09:12:08;;;;;;;4.32;2.30;;;25.20;45.90;;;;;;5015270;28;20068;-67
2022/07/18 09:14:39;;;;;;;4.50;3.00;;;25.20;45.20;;;;;;5022168;28;20021;-67
2022/07/18 09:17:12;;;;;;;5.63;1.95;;;25.40;45.20;;;;;;5019299;28;20025;-67
2022/07/18 09:19:40;;;;;;;5.18;2.42;;;25.50;44.20;;;;;;5017780;28;20674;-67
2022/07/18 09:22:18;;;;;;;5.88;2.35;;;25.60;44.10;;;;;;5017536;28;20497;-67
2022/07/18 09:24:52;;;;;;;6.78;3.13;;;25.70;44.50;;;;;;5017943;28;20091;-68
2022/07/18 09:27:36;;;;;;;5.53;3.22;;;25.70;44.10;;;;;;5013899;28;20033;-67
2022/07/18 09:30:12;;;;;;;5.40;2.35;;;25.80;43.60;;;;;;5012838;28;20147;-67
2022/07/18 09:32:40;;;;;;;3.45;1.83;;;25.90;43.60;;;;;;5015048;28;20531;-66
2022/07/18 09:35:15;;;;;;;3.90;2.40;;;26.00;43.00;;;;;;5021463;28;20037;-67
2022/07/18 09:38:11;;;;;;;5.72;2.75;;;26.10;42.70;;;;;;5017598;28;20029;-67
2022/07/18 09:40:39;;;;;;;8.40;3.42;;;26.30;42.90;;;;;;5016291;28;20041;-67
2022/07/18 09:43:08;;;;;;;5.55;3.58;;;26.30;42.70;;;;;;5018141;28;20641;-67
2022/07/18 09:45:42;;;;;;;5.88;3.10;;;26.40;42.60;;;;;;5017143;28;20141;-67
2022/07/18 09:48:10;;;;;;;4.95;3.20;;;26.40;42.20;;;;;;5011898;28;20072;-67
2022/07/18 09:50:43;;;;;;;6.93;3.20;;;26.50;42.60;;;;;;5018682;28;20029;-67
2022/07/18 09:53:19;;;;;;;5.03;2.80;;;26.50;42.10;;;;;;5018950;28;20068;-67
2022/07/18 09:55:47;;;;;;;;;;;26.50;41.80;;;;;;5020245;28;20033;-67
2022/07/18 09:58:19;;;;;;;4.32;2.75;;;26.40;42.40;;;;;;5017406;28;19909;-67
2022/07/18 10:00:45;;;;;;;5.28;3.47;;;26.50;42.30;;;;;;5018166;28;20394;-67
2022/07/18 10:03:11;;;;;;;4.57;3.45;;;26.50;42.00;;;;;;5014621;28;20100;-67
2022/07/18 10:05:38;;;;;;;5.47;3.40;;;26.50;41.80;;;;;;5014001;28;20497;-67
2022/07/18 10:08:09;;;;;;;8.30;4.63;;;26.50;41.30;;;;;;5011222;28;20061;-67
2022/07/18 10:10:35;;;;;;;5.88;3.65;;;26.70;41.70;;;;;;5021220;28;20041;-67
2022/07/18 10:13:03;;;;;;;7.28;3.50;;;26.70;41.50;;;;;;5021130;28;20264;-67
2022/07/18 10:15:32;;;;;;;5.13;3.20;;;26.80;42.50;;;;;;5018696;28;20033;-67
2022/07/18 10:17:59;;;;;;;4.47;3.20;;;26.80;41.70;;;;;;5015873;28;20041;-68
2022/07/18 10:20:28;;;;;;;5.70;3.63;;;26.90;42.30;;;;;;5015838;28;20038;-67
2022/07/18 10:22:57;;;;;;;5.97;3.28;;;27.00;42.10;;;;;;5015869;28;20048;-67
2022/07/18 10:25:24;;;;;;;6.72;3.85;;;27.00;42.80;;;;;;5014898;28;20124;-67
2022/07/18 10:27:54;;;;;;;8.60;3.92;;;27.10;41.40;;;;;;5013829;28;20029;-67
2022/07/18 10:30:33;;;;;;;7.00;3.35;;;27.10;41.20;;;;;;5020644;28;20034;-67
2022/07/18 10:33:00;;;;;;;6.55;3.30;;;27.10;41.20;;;;;;5019782;28;20105;-67
2022/07/18 10:36:02;;;;;;;5.47;3.38;;;27.20;41.60;;;;;;5017205;28;20036;-67
2022/07/18 10:38:28;;;;;;;5.72;3.72;;;27.20;41.00;;;;;;5017617;28;20026;-67
2022/07/18 10:41:07;;;;;;;6.60;3.75;;;27.10;41.80;;;;;;5014173;28;20032;-67
2022/07/18 10:43:36;;;;;;;9.63;3.95;;;27.20;41.60;;;;;;5014251;28;20033;-67
2022/07/18 10:46:04;;;;;;;7.65;4.05;;;27.10;40.70;;;;;;5011538;28;20042;-67
2022/07/18 10:48:33;;;;;;;5.20;3.42;;;27.10;40.80;;;;;;5019839;28;20033;-67
2022/07/18 10:51:05;;;;;;;6.32;3.55;;;27.00;40.50;;;;;;5020833;28;20600;-67
2022/07/18 10:53:52;;;;;;;5.72;3.90;;;27.00;39.90;;;;;;5020245;28;20914;-67
2022/07/18 10:56:18;;;;;;;6.25;4.43;;;27.10;39.80;;;;;;5019133;28;20096;-67
2022/07/18 10:58:44;;;;;;;5.93;3.85;;;27.20;39.70;;;;;;5017420;28;20037;-67
2022/07/18 11:01:17;;;;;;;5.50;4.22;;;27.30;39.30;;;;;;5012402;28;20036;-67
2022/07/18 11:03:43;;;;;;;7.97;4.25;;;27.30;38.80;;;;;;5013933;28;20026;-68
2022/07/18 11:06:09;;;;;;;7.75;4.75;;;27.40;38.40;;;;;;5013363;28;20036;-67
2022/07/18 11:08:35;;;;;;;5.72;3.67;;;27.50;38.90;;;;;;5018904;28;20029;-67
2022/07/18 11:11:05;;;;;;;7.65;4.63;;;27.50;38.90;;;;;;5019224;28;20088;-67
2022/07/18 11:13:37;;;;;;;9.27;4.25;;;27.60;39.00;;;;;;5018400;28;20124;-67
2022/07/18 11:16:17;;;;;;;5.97;4.40;;;27.70;38.90;;;;;;5015561;28;20033;-67
2022/07/18 11:18:45;;;;;;;7.35;4.28;;;27.60;38.20;;;;;;5018474;28;20041;-67
2022/07/18 11:21:28;;;;;;;5.90;4.57;;;27.60;38.70;;;;;;5010880;28;20084;-67
2022/07/18 11:24:03;;;;;;;5.57;4.57;;;27.60;38.90;;;;;;5013797;28;20021;-67
2022/07/18 11:26:29;;;;;;;7.18;4.68;;;27.70;39.30;;;;;;5019328;28;20087;-67
2022/07/18 11:29:04;;;;;;;5.82;3.95;;;27.80;38.30;;;;;;5019014;28;20030;-67
2022/07/18 11:31:31;;;;;;;5.30;4.20;;;27.90;38.40;;;;;;5016603;28;20153;-67
2022/07/18 11:34:00;;;;;;;5.13;4.15;;;27.90;38.40;;;;;;5018776;28;20025;-67
2022/07/18 11:36:30;;;;;;;8.95;4.90;;;28.00;38.40;;;;;;5014482;28;20795;-67
2022/07/18 11:39:02;;;;;;;6.90;4.93;;;28.10;38.50;;;;;;5013679;28;20030;-67
2022/07/18 11:41:28;;;;;;;5.93;4.10;;;28.10;37.50;;;;;;5012308;28;20408;-67
2022/07/18 11:43:55;;;;;;;5.65;4.20;;;28.20;37.70;;;;;;5011306;28;20079;-67
2022/07/18 11:46:25;;;;;;;8.35;5.00;;;28.30;38.00;;;;;;5018501;28;20112;-67
2022/07/18 11:49:05;;;;;;;8.32;4.50;;;28.30;37.30;;;;;;5018085;28;20025;-67
2022/07/18 11:51:40;;;;;;;5.93;4.65;;;28.20;38.00;;;;;;5017592;28;20867;-67
2022/07/18 11:54:06;;;;;;;6.72;4.63;;;28.30;38.40;;;;;;5017357;28;20033;-67
2022/07/18 11:56:32;;;;;;;7.63;4.15;;;28.30;37.30;;;;;;5015018;28;20120;-67
2022/07/18 11:58:58;;;;;;;5.72;3.90;;;28.30;37.90;;;;;;5015985;28;20116;-67
2022/07/18 12:01:33;;;;;;;5.75;4.10;;;28.30;37.60;;;;;;5011335;28;20026;-67
2022/07/18 12:03:59;;;;;;;6.18;4.28;;;28.30;37.80;;;;;;5023457;28;20033;-67
2022/07/18 12:06:27;;;;;;;6.70;4.57;;;28.40;37.90;;;;;;5021830;28;20048;-67
2022/07/18 12:09:00;;;;;;;6.03;4.20;;;28.40;37.70;;;;;;5020063;28;20493;-67
2022/07/18 12:11:36;;;;;;;7.75;3.83;;;28.60;37.50;;;;;;5018409;28;20048;-67
2022/07/18 12:14:08;;;;;;;6.63;4.18;;;28.70;38.30;;;;;;5021019;28;20040;-67
2022/07/18 12:16:38;;;;;;;5.38;3.53;;;28.80;37.80;;;;;;5017107;28;20025;-67
2022/07/18 12:19:12;;;;;;;6.90;3.97;;;28.80;38.30;;;;;;5014102;28;20040;-67
2022/07/18 12:21:49;;;;;;;5.40;4.00;;;28.70;37.50;;;;;;5019760;28;20032;-67
2022/07/18 12:24:24;;;;;;;7.70;3.90;;;28.70;37.80;;;;;;5020445;28;20048;-67
2022/07/18 12:27:25;;;;;;;5.68;3.40;;;28.60;37.30;;;;;;5021248;28;20053;-67
2022/07/18 12:30:11;;;;;;;5.93;3.88;;;28.60;37.70;;;;;;5019092;28;20041;-67
2022/07/18 12:32:44;;;;;;;5.00;3.58;;;28.70;37.30;;;;;;5014308;28;20152;-67
2022/07/18 12:35:20;;;;;;;5.50;3.53;;;28.70;37.40;;;;;;5014778;28;20025;-67
2022/07/18 12:38:01;;;;;;;6.90;3.90;;;28.80;37.50;;;;;;5016395;28;20029;-67
2022/07/18 12:40:49;;;;;;;6.20;3.92;;;28.70;38.00;;;;;;5017612;28;20034;-67
2022/07/18 12:43:21;;;;;;;5.30;3.60;;;28.70;37.00;;;;;;5018771;28;20037;-67
2022/07/18 12:45:47;;;;;;;4.63;3.75;;;28.70;37.10;;;;;;5022260;28;20080;-67
2022/07/18 12:48:13;;;;;;;6.35;3.90;;;28.80;38.20;;;;;;5017549;28;20053;-67
2022/07/18 12:50:40;;;;;;;6.05;3.70;;;29.00;38.20;;;;;;5019517;28;20033;-67
2022/07/18 12:53:06;;;;;;;6.47;3.95;;;29.00;37.70;;;;;;5015924;28;20118;-67
2022/07/18 12:55:32;;;;;;;6.43;2.78;;;29.00;37.60;;;;;;5017365;28;20356;-67